Time;durP1;ratioP1;P1;durP2;ratioP2;P2;SDS_P1;SDS_P2;PMS_P1;PMS_P2;Temp;Humidity;BMP_temperature;BMP_pressure;BME280_temperature;BME280_humidity;BME280_pressure;Samples;Min_cycle;Max_cycle;Signal;HPM_P1;HPM_P2
2024/02/20 00:01:05;;;;;;;6.60;4.57;;;8.40;99.90;;;9.60;67.53;98531.00;5030992;28;20068;-52
2024/02/20 00:03:33;;;;;;;6.20;4.37;;;8.30;99.90;;;9.66;67.48;98538.44;5030600;28;20045;-53
2024/02/20 00:06:00;;;;;;;9.43;5.40;;;8.30;99.90;;;9.56;68.23;98535.72;5030883;28;20049;-51
2024/02/20 00:08:28;;;;;;;6.13;4.43;;;8.30;99.90;;;9.50;68.04;98533.63;5030570;28;20393;-52
2024/02/20 00:10:56;;;;;;;7.67;4.43;;;8.30;99.90;;;9.52;68.14;98539.63;5030650;28;20050;-53
2024/02/20 00:13:24;;;;;;;9.87;4.97;;;8.30;99.90;;;9.57;68.04;98533.91;5030573;28;20046;-54
2024/02/20 00:15:52;;;;;;;7.83;4.47;;;8.30;99.90;;;9.40;68.79;98535.34;5031002;28;20045;-53
2024/02/20 00:18:20;;;;;;;7.53;4.63;;;8.20;99.90;;;9.41;68.75;98535.22;5030270;28;20071;-54
2024/02/20 00:20:48;;;;;;;9.57;4.73;;;8.20;99.90;;;9.34;69.08;98541.22;5029771;28;20296;-53
2024/02/20 00:23:17;;;;;;;8.73;4.97;;;8.10;99.90;;;9.44;69.10;98547.41;5030904;28;20056;-53
2024/02/20 00:25:45;;;;;;;8.97;4.73;;;8.10;99.90;;;9.56;68.67;98549.03;5022677;28;20041;-54
2024/02/20 00:28:13;;;;;;;6.97;3.50;;;8.20;99.90;;;9.34;69.44;98541.22;5030616;28;20438;-52
2024/02/20 00:30:41;;;;;;;7.97;4.13;;;8.10;99.90;;;9.44;68.60;98545.63;5031146;28;20065;-53
2024/02/20 00:33:09;;;;;;;9.37;5.13;;;8.10;99.90;;;9.55;68.28;98538.53;5031266;28;20068;-52
2024/02/20 00:35:36;;;;;;;7.30;4.23;;;8.20;99.90;;;9.53;68.64;98540.47;5030414;28;20399;-55
2024/02/20 00:38:04;;;;;;;6.60;4.17;;;8.20;99.90;;;9.46;68.56;98541.00;5030796;28;20332;-55
2024/02/20 00:40:32;;;;;;;7.43;4.67;;;8.20;99.90;;;9.52;68.04;98539.63;5030813;28;20049;-56
2024/02/20 00:42:59;;;;;;;7.67;3.93;;;8.20;99.90;;;9.48;68.11;98535.56;5030554;28;20041;-53
2024/02/20 00:45:27;;;;;;;9.03;4.03;;;8.10;99.90;;;9.37;68.65;98544.44;5030592;28;20486;-52
2024/02/20 00:47:55;;;;;;;8.33;3.33;;;8.10;99.90;;;9.26;68.46;98537.38;5033798;28;20049;-52
2024/02/20 00:50:23;;;;;;;5.13;3.67;;;8.00;99.90;;;9.18;68.15;98539.03;5034287;28;20410;-55
2024/02/20 00:52:50;;;;;;;5.43;3.17;;;7.90;99.90;;;9.21;68.26;98544.91;5034369;28;20042;-53
2024/02/20 00:55:18;;;;;;;6.03;3.27;;;7.90;99.90;;;9.16;68.29;98546.28;5034317;28;20044;-52
2024/02/20 00:57:46;;;;;;;6.53;3.17;;;7.80;99.90;;;9.17;68.65;98539.97;5033652;28;20057;-52
2024/02/20 01:00:14;;;;;;;7.77;3.97;;;7.90;99.90;;;9.21;68.21;98546.75;5034271;28;20518;-53
2024/02/20 01:02:42;;;;;;;6.40;3.63;;;7.90;99.90;;;9.15;68.39;98552.56;5034045;28;20046;-52
2024/02/20 01:05:10;;;;;;;4.90;2.50;;;7.80;99.90;;;9.02;68.42;98548.28;5034192;28;20046;-52
2024/02/20 01:07:38;;;;;;;7.53;3.40;;;7.80;99.90;;;9.15;68.44;98548.09;5033561;28;20052;-51
2024/02/20 01:10:06;;;;;;;5.97;3.07;;;7.80;99.90;;;9.19;68.27;98551.31;5016198;28;20499;-53
2024/02/20 01:12:34;;;;;;;5.93;3.37;;;7.90;99.90;;;9.13;68.26;98555.38;5033715;28;20053;-55
2024/02/20 01:15:02;;;;;;;7.10;4.03;;;7.80;99.90;;;9.09;68.39;98551.25;5033972;28;20108;-52
2024/02/20 01:17:29;;;;;;;8.17;4.67;;;7.80;99.90;;;9.02;68.91;98547.44;5012815;28;20046;-53
2024/02/20 01:19:58;;;;;;;5.47;3.23;;;7.70;99.90;;;9.18;68.17;98550.47;5032954;28;20056;-53
2024/02/20 01:22:26;;;;;;;8.33;3.53;;;7.70;99.90;;;9.12;68.24;98553.66;5033646;28;20426;-54
2024/02/20 01:24:54;;;;;;;5.33;3.40;;;7.70;99.90;;;9.12;68.34;98552.84;5033807;28;20431;-55
2024/02/20 01:27:21;;;;;;;6.07;3.00;;;7.70;99.90;;;9.19;68.06;98551.31;5033321;28;20049;-52
2024/02/20 01:29:49;;;;;;;4.97;3.23;;;7.80;99.90;;;9.17;68.24;98551.47;5033600;28;20045;-52
2024/02/20 01:32:16;;;;;;;9.40;3.70;;;7.80;99.90;;;9.26;68.01;98552.50;5033156;28;20079;-52
2024/02/20 01:34:44;;;;;;;7.33;3.40;;;7.80;99.90;;;9.21;67.98;98555.56;5033315;28;20053;-54
2024/02/20 01:37:12;;;;;;;5.33;3.30;;;7.80;99.90;;;9.22;68.11;98548.41;5015252;28;20529;-55
2024/02/20 01:39:40;;;;;;;6.30;3.77;;;7.80;99.90;;;9.23;68.18;98547.44;5033348;28;20048;-54
2024/02/20 01:42:07;;;;;;;9.87;4.07;;;7.80;99.90;;;9.23;68.19;98550.13;5015449;28;20046;-56
2024/02/20 01:44:36;;;;;;;8.03;3.10;;;7.80;99.90;;;9.12;68.27;98550.19;5033298;28;20041;-52
2024/02/20 01:47:05;;;;;;;4.53;2.90;;;7.70;99.90;;;9.20;68.01;98550.38;5015804;28;20443;-51
2024/02/20 01:49:33;;;;;;;7.87;3.70;;;7.80;99.90;;;8.95;68.46;98549.78;5015185;28;20414;-53
2024/02/20 01:52:02;;;;;;;3.97;2.60;;;7.70;99.90;;;8.94;68.46;98569.34;5015897;28;20049;-52
2024/02/20 01:54:30;;;;;;;3.30;2.20;;;7.70;99.90;;;8.93;68.56;98566.81;5015653;28;20483;-53
2024/02/20 01:56:57;;;;;;;5.27;2.67;;;7.70;99.90;;;8.98;68.36;98567.28;5014711;28;20057;-51
2024/02/20 01:59:25;;;;;;;4.73;2.67;;;7.70;99.90;;;9.07;68.05;98569.13;5032748;28;20053;-53
2024/02/20 02:01:53;;;;;;;7.00;2.50;;;7.80;99.90;;;9.12;67.68;98563.47;5033166;28;20033;-52
2024/02/20 02:04:20;;;;;;;4.97;2.30;;;7.80;99.90;;;9.15;67.45;98569.34;5032935;28;20044;-52
2024/02/20 02:06:49;;;;;;;5.70;3.03;;;7.80;99.80;;;9.03;67.42;98567.72;5032332;28;20048;-54
2024/02/20 02:09:17;;;;;;;3.33;2.07;;;7.80;99.90;;;9.12;67.27;98568.78;5033549;28;20490;-55
2024/02/20 02:11:45;;;;;;;7.37;2.73;;;7.80;99.30;;;9.05;67.04;98582.56;5033059;28;20052;-53
2024/02/20 02:14:12;;;;;;;5.83;2.27;;;7.70;98.90;;;9.05;67.23;98571.09;5015337;28;20045;-54
2024/02/20 02:16:40;;;;;;;6.20;2.70;;;7.70;98.20;;;9.08;66.79;98576.16;5014879;28;20049;-55
2024/02/20 02:19:08;;;;;;;7.30;2.93;;;7.70;99.60;;;9.11;66.95;98578.56;5015766;28;20041;-55
2024/02/20 02:21:37;;;;;;;3.30;2.10;;;7.80;98.60;;;8.83;66.94;98574.69;5032396;28;20050;-52
2024/02/20 02:24:09;;;;;;;3.87;2.27;;;7.60;96.30;;;8.82;66.94;98586.28;5032720;28;20041;-52
2024/02/20 02:26:37;;;;;;;5.93;2.50;;;7.60;97.30;;;8.87;66.94;98587.59;5032078;28;20108;-54
2024/02/20 02:29:05;;;;;;;6.07;2.90;;;7.60;98.50;;;8.98;67.05;98589.38;5032411;28;20189;-53
2024/02/20 02:31:33;;;;;;;3.97;2.37;;;7.70;99.20;;;9.12;66.80;98590.03;5032453;28;20048;-51
2024/02/20 02:34:01;;;;;;;5.37;2.63;;;7.80;98.10;;;8.98;67.18;98594.66;5032556;28;20049;-52
2024/02/20 02:36:28;;;;;;;6.80;2.53;;;7.70;98.50;;;9.04;66.78;98588.84;5032051;28;20113;-55
2024/02/20 02:38:57;;;;;;;5.97;2.50;;;7.70;97.80;;;9.15;66.44;98601.25;5014421;28;20053;-52
2024/02/20 02:41:25;;;;;;;6.80;3.07;;;7.80;98.60;;;9.20;66.70;98603.50;5032092;28;20495;-53
2024/02/20 02:43:52;;;;;;;3.80;2.20;;;7.80;97.70;;;9.01;66.70;98618.31;5032207;28;20499;-55
2024/02/20 02:46:20;;;;;;;4.67;2.30;;;7.70;97.30;;;8.92;66.89;98604.94;5032072;28;20045;-53
2024/02/20 02:48:50;;;;;;;9.43;2.77;;;7.60;97.30;;;8.96;66.59;98614.38;5031953;28;20041;-53
2024/02/20 02:51:18;;;;;;;6.50;2.60;;;7.60;98.40;;;8.97;66.59;98614.22;5032030;28;20041;-53
2024/02/20 02:53:46;;;;;;;4.00;2.60;;;7.70;96.60;;;9.05;66.52;98610.94;5014480;28;20045;-53
2024/02/20 02:56:14;;;;;;;7.07;3.03;;;7.70;96.80;;;8.99;66.51;98604.31;5014052;28;20044;-53
2024/02/20 02:58:41;;;;;;;6.33;2.47;;;7.70;96.90;;;9.09;66.57;98617.66;5031425;28;20045;-52
2024/02/20 03:01:10;;;;;;;5.07;2.23;;;7.70;97.80;;;8.93;66.53;98623.41;5031885;28;20041;-51
2024/02/20 03:03:38;;;;;;;4.27;2.40;;;7.60;97.30;;;8.99;66.59;98630.88;5031127;28;20048;-55
2024/02/20 03:06:08;;;;;;;5.07;2.30;;;7.60;97.50;;;8.90;66.63;98631.66;5031878;28;20038;-56
2024/02/20 03:08:38;;;;;;;9.90;3.07;;;7.60;98.00;;;8.93;66.74;98625.25;5014245;28;20040;-53
2024/02/20 03:11:07;;;;;;;7.63;3.07;;;7.60;98.10;;;9.07;66.46;98624.91;4998453;28;20041;-54
2024/02/20 03:13:35;;;;;;;8.47;3.50;;;7.60;99.00;;;9.09;66.55;98630.94;5012823;28;20053;-56
2024/02/20 03:16:04;;;;;;;5.40;3.10;;;7.60;98.20;;;8.91;66.75;98625.34;5031898;28;20521;-52
2024/02/20 03:18:38;;;;;;;6.77;3.17;;;7.60;99.00;;;9.12;66.38;98632.53;5031449;28;20497;-53
2024/02/20 03:21:06;;;;;;;5.17;2.67;;;7.60;99.40;;;9.15;66.46;98641.09;5030882;28;20045;-56
2024/02/20 03:23:34;;;;;;;8.07;2.97;;;7.70;99.00;;;9.18;66.38;98637.31;5031555;28;20037;-53
2024/02/20 03:26:03;;;;;;;7.40;3.20;;;7.70;99.30;;;9.22;66.04;98636.94;5031556;28;20042;-52
2024/02/20 03:28:31;;;;;;;5.00;2.60;;;7.70;98.80;;;9.26;65.86;98646.31;5031137;28;20033;-52
2024/02/20 03:31:00;;;;;;;4.43;2.90;;;7.70;99.30;;;9.16;65.93;98649.91;5021956;28;20053;-52
2024/02/20 03:33:30;;;;;;;10.00;3.30;;;7.60;98.30;;;9.03;66.21;98650.06;5031222;28;20414;-52
2024/02/20 03:35:58;;;;;;;7.10;2.40;;;7.60;99.10;;;8.97;66.63;98656.72;5031289;28;20041;-54
2024/02/20 03:38:26;;;;;;;5.63;2.73;;;7.50;98.70;;;9.04;66.51;98657.91;5030920;28;20037;-55
2024/02/20 03:40:53;;;;;;;5.23;2.17;;;7.60;99.60;;;9.05;66.52;98662.25;5031044;28;20549;-54
2024/02/20 03:43:21;;;;;;;4.87;3.20;;;7.60;99.00;;;9.07;66.36;98659.47;5037692;28;20037;-53
2024/02/20 03:45:48;;;;;;;4.57;2.50;;;7.60;98.90;;;9.13;66.03;98666.94;5030913;28;20045;-52
2024/02/20 03:48:16;;;;;;;6.47;2.50;;;7.60;99.90;;;9.04;66.36;98676.50;5030703;28;20042;-55
2024/02/20 03:50:44;;;;;;;9.10;3.10;;;7.50;98.60;;;8.98;66.06;98678.84;5031078;28;20180;-52
2024/02/20 03:53:11;;;;;;;8.27;2.70;;;7.60;98.70;;;8.92;66.25;98674.00;5030903;28;20053;-54
2024/02/20 03:55:39;;;;;;;9.93;2.37;;;7.50;98.70;;;8.65;66.09;98676.13;5013407;28;20049;-52
2024/02/20 03:58:07;;;;;;;5.23;2.23;;;7.30;95.50;;;8.45;66.05;98687.50;5031456;28;20060;-52
2024/02/20 04:00:35;;;;;;;8.80;2.50;;;7.10;95.60;;;8.60;65.79;98680.94;5031203;28;20493;-52
2024/02/20 04:03:02;;;;;;;5.93;2.27;;;7.20;96.40;;;8.56;65.48;98690.13;5030806;28;20052;-52
2024/02/20 04:05:33;;;;;;;5.73;2.10;;;7.10;95.60;;;8.65;65.28;98697.38;5031120;28;20041;-52
2024/02/20 04:08:00;;;;;;;7.23;3.67;;;7.20;94.50;;;8.52;65.26;98694.00;5030153;28;20045;-52
2024/02/20 04:10:28;;;;;;;7.03;2.63;;;7.10;93.90;;;8.66;65.09;98695.53;5030636;28;20064;-52
2024/02/20 04:12:57;;;;;;;4.63;2.90;;;7.20;94.40;;;8.78;65.08;98699.03;5030674;28;20511;-55
2024/02/20 04:15:24;;;;;;;4.40;2.60;;;7.30;94.70;;;8.79;64.67;98706.03;5030938;28;20049;-55
2024/02/20 04:17:52;;;;;;;5.67;2.33;;;7.30;93.80;;;8.78;64.51;98705.19;5027909;28;20060;-53
2024/02/20 04:20:19;;;;;;;5.73;2.43;;;7.30;92.90;;;8.81;64.34;98710.25;5012251;28;20053;-51
2024/02/20 04:22:47;;;;;;;5.23;1.90;;;7.30;92.60;;;8.82;63.94;98711.06;5034713;28;20049;-52
2024/02/20 04:25:15;;;;;;;11.10;2.93;;;7.30;92.30;;;8.64;64.22;98713.41;5034862;28;20044;-52
2024/02/20 04:27:44;;;;;;;7.07;3.50;;;7.10;90.70;;;8.67;64.07;98715.84;5016898;28;20414;-52
2024/02/20 04:30:13;;;;;;;9.93;2.77;;;7.20;92.00;;;8.64;64.11;98727.53;5034793;28;20041;-53
2024/02/20 04:32:41;;;;;;;7.77;2.57;;;7.20;91.00;;;8.65;63.65;98718.59;5034851;28;20048;-55
2024/02/20 04:35:09;;;;;;;8.47;2.73;;;7.20;90.10;;;8.69;63.71;98723.69;5026719;28;20045;-53
2024/02/20 04:37:37;;;;;;;6.27;2.50;;;7.20;91.00;;;8.70;63.64;98725.34;5034315;28;20064;-53
2024/02/20 04:40:07;;;;;;;7.77;2.80;;;7.20;90.80;;;8.73;63.68;98733.09;5034584;28;20042;-54
2024/02/20 04:42:35;;;;;;;7.00;2.03;;;7.30;91.10;;;8.71;63.90;98738.50;5034375;28;20400;-54
2024/02/20 04:45:05;;;;;;;5.00;2.93;;;7.20;90.50;;;8.83;63.80;98726.06;5034445;28;20037;-53
2024/02/20 04:47:32;;;;;;;6.30;2.63;;;7.30;92.30;;;8.88;63.69;98737.16;5034136;28;20411;-52
2024/02/20 04:50:00;;;;;;;8.83;2.50;;;7.40;92.20;;;8.96;63.79;98740.03;5033858;28;20498;-54
2024/02/20 04:52:28;;;;;;;4.40;2.10;;;7.40;91.70;;;8.79;63.95;98745.88;5034235;28;20490;-54
2024/02/20 04:54:56;;;;;;;4.47;2.33;;;7.30;91.40;;;8.81;63.96;98741.28;5034267;28;20387;-52
2024/02/20 04:57:23;;;;;;;5.37;2.20;;;7.30;93.30;;;8.82;63.89;98737.63;5034033;28;20040;-54
2024/02/20 04:59:51;;;;;;;5.33;2.47;;;7.30;93.10;;;8.72;63.92;98742.84;5033563;28;20049;-53
2024/02/20 05:02:19;;;;;;;6.03;2.00;;;7.30;92.30;;;8.79;64.01;98746.69;5033953;28;20048;-53
2024/02/20 05:04:47;;;;;;;7.80;2.60;;;7.30;92.40;;;8.73;63.95;98746.34;5034065;28;20041;-54
2024/02/20 05:07:14;;;;;;;6.77;3.00;;;7.20;91.30;;;8.64;64.23;98759.38;5033951;28;20049;-56
2024/02/20 05:09:43;;;;;;;5.23;2.73;;;7.10;92.30;;;8.75;63.94;98747.06;5033704;28;20049;-54
2024/02/20 05:12:11;;;;;;;7.10;2.67;;;7.20;92.50;;;8.74;63.90;98750.69;5024376;28;20057;-55
2024/02/20 05:14:38;;;;;;;6.60;2.30;;;7.20;91.80;;;8.70;63.94;98752.72;5033767;28;20045;-53
2024/02/20 05:17:06;;;;;;;4.03;1.97;;;7.20;91.30;;;8.80;63.36;98745.75;5033911;28;20034;-53
2024/02/20 05:19:33;;;;;;;5.37;2.83;;;7.30;91.80;;;8.82;63.55;98745.59;5033940;28;20046;-53
2024/02/20 05:22:04;;;;;;;5.63;2.20;;;7.30;89.80;;;8.86;63.54;98753.22;5014853;28;20072;-55
2024/02/20 05:24:36;;;;;;;7.97;2.27;;;7.30;91.10;;;8.84;62.84;98743.66;5032795;28;20094;-54
2024/02/20 05:27:04;;;;;;;6.03;2.10;;;7.30;89.10;;;8.85;63.01;98748.84;5032967;28;20041;-56
2024/02/20 05:29:32;;;;;;;4.43;1.73;;;7.30;90.20;;;8.70;63.17;98760.69;5016210;28;20037;-53
2024/02/20 05:32:00;;;;;;;6.70;2.50;;;7.20;89.60;;;8.77;62.97;98758.41;5033504;28;20045;-52
2024/02/20 05:34:28;;;;;;;11.43;2.33;;;7.30;90.30;;;8.65;63.19;98757.59;5033358;28;20052;-54
2024/02/20 05:36:56;;;;;;;9.70;2.67;;;7.20;89.90;;;8.55;63.58;98754.81;5015545;28;20056;-51
2024/02/20 05:39:25;;;;;;;6.20;2.40;;;7.10;91.30;;;8.53;63.66;98758.53;5033330;28;20064;-53
2024/02/20 05:41:54;;;;;;;13.77;2.30;;;7.10;90.80;;;8.30;64.18;98747.91;5033400;28;20053;-56
2024/02/20 05:44:21;;;;;;;7.77;2.60;;;7.00;91.50;;;8.30;64.14;98753.22;5033286;28;20033;-55
2024/02/20 05:46:49;;;;;;;6.97;2.47;;;6.90;92.60;;;8.21;64.46;98756.56;5032835;28;20479;-56
2024/02/20 05:49:16;;;;;;;8.43;2.80;;;6.80;92.00;;;8.25;64.46;98761.50;5033289;28;20041;-54
2024/02/20 05:51:46;;;;;;;8.13;2.93;;;6.80;93.10;;;8.37;63.84;98759.72;5033167;28;20418;-54
2024/02/20 05:54:15;;;;;;;6.53;2.17;;;6.90;92.70;;;8.39;64.12;98762.25;5015170;28;20057;-52
2024/02/20 05:56:43;;;;;;;5.10;2.10;;;6.90;92.50;;;8.41;63.94;98761.22;5032814;28;20528;-52
2024/02/20 05:59:12;;;;;;;8.30;2.73;;;6.90;92.80;;;8.21;64.14;98764.53;5015572;28;20044;-55
2024/02/20 06:01:39;;;;;;;12.30;3.50;;;6.80;91.90;;;8.27;63.94;98759.59;5032873;28;20553;-55
2024/02/20 06:04:07;;;;;;;6.10;2.30;;;6.90;92.30;;;8.34;64.26;98762.63;5032872;28;20045;-55
2024/02/20 06:06:35;;;;;;;9.63;2.17;;;6.90;91.20;;;8.32;63.89;98763.69;5032593;28;20041;-53
2024/02/20 06:09:03;;;;;;;10.27;3.40;;;6.90;92.00;;;8.40;63.71;98766.59;5032597;28;20074;-52
2024/02/20 06:11:30;;;;;;;4.83;3.07;;;6.90;91.20;;;8.42;63.50;98770.00;5015157;28;20422;-56
2024/02/20 06:13:58;;;;;;;6.60;2.30;;;7.00;90.90;;;8.49;63.50;98765.91;5032852;28;20046;-52
2024/02/20 06:16:26;;;;;;;6.27;2.70;;;7.10;90.70;;;8.47;63.43;98775.78;5032522;28;20042;-53
2024/02/20 06:18:54;;;;;;;8.20;2.50;;;7.00;90.30;;;8.47;63.45;98768.69;5032683;28;20060;-53
2024/02/20 06:21:23;;;;;;;10.50;2.60;;;7.00;89.90;;;8.50;63.50;98772.91;5032130;28;20060;-52
2024/02/20 06:23:51;;;;;;;9.17;2.63;;;7.00;90.10;;;8.56;63.42;98782.19;5032511;28;20418;-51
2024/02/20 06:26:19;;;;;;;11.17;3.47;;;7.00;90.50;;;8.62;62.87;98777.22;5032320;28;20037;-51
2024/02/20 06:28:47;;;;;;;12.00;2.60;;;7.10;90.20;;;8.59;63.26;98782.81;5032301;28;20042;-53
2024/02/20 06:31:14;;;;;;;8.43;3.77;;;7.10;89.00;;;8.60;63.24;98794.25;5032388;28;20041;-53
2024/02/20 06:33:44;;;;;;;6.83;2.30;;;7.00;90.50;;;8.54;63.13;98797.41;5015033;28;20414;-53
2024/02/20 06:36:12;;;;;;;8.13;2.57;;;7.00;89.50;;;8.54;63.04;98792.09;5031979;28;20049;-52
2024/02/20 06:38:39;;;;;;;12.93;4.13;;;7.00;90.70;;;8.61;63.03;98796.81;5032238;28;20491;-52
2024/02/20 06:41:07;;;;;;;4.77;2.20;;;7.00;90.30;;;8.60;62.84;98803.06;5031753;28;20041;-55
2024/02/20 06:43:37;;;;;;;9.57;2.70;;;7.00;89.70;;;8.59;62.96;98809.34;5031615;28;20053;-53
2024/02/20 06:46:05;;;;;;;7.73;3.17;;;7.00;89.80;;;8.58;62.83;98810.31;5031941;28;20065;-51
2024/02/20 06:48:33;;;;;;;4.03;2.30;;;7.00;90.40;;;8.51;63.18;98810.91;5031856;28;20041;-52
2024/02/20 06:51:01;;;;;;;9.30;3.37;;;7.00;89.00;;;8.56;63.01;98814.88;5031781;28;20506;-52
2024/02/20 06:53:28;;;;;;;7.20;3.03;;;7.10;90.80;;;8.59;62.87;98812.00;5032458;28;20060;-52
2024/02/20 06:55:56;;;;;;;8.57;3.20;;;7.00;90.60;;;8.60;63.03;98816.34;5031793;28;20049;-52
2024/02/20 06:58:26;;;;;;;10.57;3.37;;;7.00;89.80;;;8.56;62.90;98824.66;5031296;28;20033;-52
2024/02/20 07:00:54;;;;;;;9.93;3.03;;;7.00;90.60;;;8.57;63.08;98829.88;5032010;28;20053;-51
2024/02/20 07:03:22;;;;;;;9.67;2.97;;;7.00;89.70;;;8.51;63.21;98833.00;5031742;28;20418;-53
2024/02/20 07:05:49;;;;;;;4.57;2.30;;;7.00;90.90;;;8.51;63.34;98832.13;5032229;28;20054;-54
2024/02/20 07:08:17;;;;;;;6.80;3.30;;;7.00;90.60;;;8.59;63.60;98827.09;5031201;28;20046;-55
2024/02/20 07:10:45;;;;;;;10.43;3.07;;;7.10;91.40;;;8.63;63.11;98832.03;5031759;28;20049;-50
2024/02/20 07:13:13;;;;;;;12.07;3.70;;;7.10;91.10;;;8.59;63.25;98841.19;5031692;28;20056;-52
2024/02/20 07:15:41;;;;;;;11.03;3.47;;;7.10;89.80;;;8.59;63.16;98838.56;5031606;28;20049;-52
2024/02/20 07:18:08;;;;;;;8.00;3.07;;;7.00;91.50;;;8.67;62.99;98840.59;5031013;28;20050;-54
2024/02/20 07:20:36;;;;;;;5.83;3.10;;;7.10;90.80;;;8.67;63.05;98837.94;5028089;28;20046;-53
2024/02/20 07:23:04;;;;;;;7.80;3.63;;;7.10;90.90;;;8.72;62.82;98838.41;5013591;28;20061;-53
2024/02/20 07:25:32;;;;;;;10.60;5.13;;;7.20;90.30;;;8.70;63.02;98843.00;5031514;28;20060;-52
2024/02/20 07:28:00;;;;;;;10.23;3.73;;;7.20;90.00;;;8.60;63.17;98842.03;5030988;28;20049;-52
2024/02/20 07:30:30;;;;;;;8.07;3.10;;;7.10;90.50;;;8.71;63.00;98846.53;5031429;28;20033;-51
2024/02/20 07:32:58;;;;;;;7.23;2.40;;;7.20;90.70;;;8.72;63.00;98842.88;5029247;28;20509;-52
2024/02/20 07:35:26;;;;;;;8.10;4.00;;;7.10;90.30;;;8.62;63.04;98853.38;5031396;28;20052;-53
2024/02/20 07:37:54;;;;;;;13.73;3.63;;;7.10;91.10;;;8.55;63.18;98846.84;5026146;28;20054;-52
2024/02/20 07:40:22;;;;;;;7.23;3.10;;;7.00;91.50;;;8.53;63.20;98857.63;5030818;28;20045;-50
2024/02/20 07:42:50;;;;;;;9.13;2.87;;;6.90;91.40;;;8.44;63.52;98847.69;5031158;28;20049;-49
2024/02/20 07:45:17;;;;;;;8.80;2.73;;;6.80;92.50;;;8.45;63.52;98849.38;5031388;28;20113;-54
2024/02/20 07:47:45;;;;;;;6.37;3.70;;;6.80;92.10;;;8.31;63.76;98857.53;5030852;28;20052;-53
2024/02/20 07:50:13;;;;;;;9.17;3.40;;;6.80;92.70;;;8.22;64.16;98853.75;5030590;28;20049;-52
2024/02/20 07:52:41;;;;;;;10.30;3.10;;;6.80;93.00;;;8.26;64.55;98860.53;5030920;28;20045;-52
2024/02/20 07:55:09;;;;;;;8.00;4.57;;;6.80;92.80;;;8.31;64.29;98860.19;5030339;28;20045;-53
2024/02/20 07:57:37;;;;;;;9.53;4.30;;;6.90;92.70;;;8.34;64.33;98857.31;5030154;28;20064;-51
2024/02/20 08:00:05;;;;;;;6.47;3.43;;;6.90;92.70;;;8.46;64.49;98862.53;5030948;28;20056;-51
2024/02/20 08:02:39;;;;;;;;;;;7.10;92.90;;;8.48;64.49;98870.38;5032493;28;20049;-51
2024/02/20 08:05:09;;;;;;;11.10;4.87;;;7.10;91.70;;;8.65;64.36;98871.75;5030764;28;19925;-50
2024/02/20 08:07:37;;;;;;;7.77;3.43;;;7.20;91.90;;;8.61;64.12;98870.28;5030490;28;20033;-53
2024/02/20 08:10:08;;;;;;;12.20;2.63;;;7.30;90.40;;;8.64;63.91;98878.84;5030831;28;20046;-51
2024/02/20 08:12:36;;;;;;;12.20;6.67;;;7.30;89.60;;;8.78;63.77;98876.91;5030217;28;20045;-51
2024/02/20 08:15:04;;;;;;;8.13;3.40;;;7.40;90.50;;;8.92;63.84;98883.81;5030190;28;20415;-51
2024/02/20 08:17:32;;;;;;;7.40;3.30;;;7.50;90.60;;;8.95;63.65;98881.75;5030095;28;20446;-52
2024/02/20 08:19:59;;;;;;;7.97;3.80;;;7.50;89.20;;;8.89;63.24;98884.91;5030781;28;20049;-50
2024/02/20 08:22:27;;;;;;;8.27;3.17;;;7.50;88.70;;;8.99;63.23;98885.84;5029872;28;20506;-50
2024/02/20 08:24:54;;;;;;;13.90;4.60;;;7.60;89.20;;;8.96;63.05;98883.47;5030820;28;20046;-53
2024/02/20 08:27:23;;;;;;;10.20;4.23;;;7.50;87.80;;;8.82;63.34;98883.69;5012115;28;20075;-52
2024/02/20 08:29:50;;;;;;;13.63;4.93;;;7.50;89.10;;;8.93;63.46;98883.69;5030758;28;20045;-49
2024/02/20 08:32:18;;;;;;;9.77;3.10;;;7.50;89.50;;;8.81;63.32;98879.34;5031035;28;20041;-52
2024/02/20 08:34:45;;;;;;;9.83;3.77;;;7.50;87.70;;;9.03;63.04;98881.16;5030940;28;20469;-51
2024/02/20 08:37:13;;;;;;;11.10;4.47;;;7.50;89.20;;;9.09;62.65;98888.63;5030131;28;20053;-52
2024/02/20 08:39:41;;;;;;;8.87;3.20;;;7.60;87.50;;;8.98;62.89;98886.00;5012671;28;20049;-48
2024/02/20 08:42:08;;;;;;;13.60;4.07;;;7.60;87.70;;;8.99;63.19;98885.84;5030506;28;20050;-51
2024/02/20 08:44:36;;;;;;;13.17;3.60;;;7.60;88.40;;;9.07;63.11;98891.44;5013500;28;20060;-54
2024/02/20 08:47:04;;;;;;;13.63;4.27;;;7.70;88.10;;;9.11;62.98;98888.53;5030625;28;20063;-49
2024/02/20 08:49:31;;;;;;;8.53;3.40;;;7.80;87.40;;;9.11;62.75;98892.03;5030470;28;20077;-52
2024/02/20 08:51:59;;;;;;;9.93;3.63;;;7.80;86.70;;;9.04;63.08;98896.13;5030231;28;20073;-52
2024/02/20 08:54:27;;;;;;;11.23;4.93;;;7.80;86.70;;;9.01;63.02;98889.25;5030309;28;20034;-50
2024/02/20 08:56:56;;;;;;;15.57;3.73;;;7.70;88.00;;;9.23;62.89;98892.88;5030119;28;20049;-49
2024/02/20 08:59:24;;;;;;;11.77;3.67;;;7.80;87.80;;;9.33;62.74;98898.31;5012526;28;20414;-52
2024/02/20 09:01:52;;;;;;;11.57;3.80;;;7.90;86.80;;;9.36;62.88;98896.22;5030298;28;20042;-51
2024/02/20 09:04:19;;;;;;;10.07;3.93;;;8.00;85.60;;;9.52;62.64;98906.50;5030298;28;20113;-49
2024/02/20 09:06:47;;;;;;;9.47;4.37;;;8.10;87.50;;;9.59;61.95;98901.50;5013184;28;20046;-49
2024/02/20 09:09:15;;;;;;;10.83;4.03;;;8.20;86.30;;;9.66;61.87;98902.72;5033931;28;20037;-49
2024/02/20 09:11:43;;;;;;;9.70;3.43;;;8.20;85.70;;;9.60;61.97;98911.19;5016568;28;20041;-49
2024/02/20 09:14:10;;;;;;;12.10;4.53;;;8.20;85.30;;;9.46;62.02;98910.47;5032774;28;20343;-50
2024/02/20 09:16:38;;;;;;;11.83;4.70;;;8.10;85.80;;;9.53;62.08;98905.50;5033561;28;20052;-52
2024/02/20 09:19:07;;;;;;;14.77;3.80;;;8.10;86.00;;;9.56;61.68;98907.94;5034172;28;20052;-51
2024/02/20 09:21:34;;;;;;;9.87;3.70;;;8.20;84.20;;;9.59;61.78;98910.31;5015541;28;20037;-49
2024/02/20 09:24:02;;;;;;;12.17;4.57;;;8.20;86.00;;;9.72;61.65;98912.84;5034065;28;20046;-50
2024/02/20 09:26:33;;;;;;;12.67;4.17;;;8.30;86.00;;;9.79;61.60;98916.69;5033137;28;20041;-49
2024/02/20 09:29:01;;;;;;;9.50;4.83;;;8.40;85.40;;;9.85;61.66;98916.19;5033841;28;20498;-49
2024/02/20 09:31:28;;;;;;;9.27;3.80;;;8.50;84.60;;;9.92;61.48;98923.66;5016006;28;20416;-50
2024/02/20 09:33:57;;;;;;;12.67;3.73;;;8.50;84.40;;;9.87;61.32;98924.06;5033572;28;20045;-48
2024/02/20 09:36:25;;;;;;;13.67;5.73;;;8.40;84.10;;;9.96;60.89;98922.44;5033160;28;20049;-50
2024/02/20 09:38:53;;;;;;;15.40;6.03;;;8.40;84.60;;;9.97;60.94;98924.97;5033243;28;20057;-51
2024/02/20 09:41:26;;;;;;;15.07;4.73;;;8.50;83.40;;;9.92;60.55;98913.03;5033046;28;20054;-50
2024/02/20 09:43:54;;;;;;;13.40;5.30;;;8.40;84.40;;;9.83;60.50;98919.97;5015279;28;20054;-50
2024/02/20 09:46:24;;;;;;;11.77;4.77;;;8.30;82.10;;;9.72;60.61;98912.00;5032931;28;20057;-50
2024/02/20 09:48:52;;;;;;;13.70;4.17;;;8.20;82.70;;;9.87;60.98;98916.06;5015719;28;20048;-49
2024/02/20 09:51:22;;;;;;;8.73;4.53;;;8.30;84.80;;;9.92;60.68;98919.19;5015839;28;20529;-52
2024/02/20 09:53:54;;;;;;;13.57;5.20;;;8.40;83.10;;;9.91;60.51;98920.16;5033219;28;20042;-48
2024/02/20 09:56:24;;;;;;;12.87;3.83;;;8.50;82.40;;;9.89;59.86;98910.59;4998236;28;20053;-49
2024/02/20 09:58:51;;;;;;;8.23;5.57;;;8.50;82.70;;;9.71;60.26;98918.28;5033065;28;20049;-52
2024/02/20 10:01:21;;;;;;;9.47;4.43;;;8.30;81.30;;;9.79;60.26;98907.84;5032769;28;20521;-49
2024/02/20 10:03:50;;;;;;;16.37;4.40;;;8.30;81.70;;;9.69;59.93;98918.41;5015650;28;20049;-50
2024/02/20 10:06:21;;;;;;;8.90;4.33;;;8.30;82.10;;;9.84;59.95;98916.31;5015089;28;20045;-50
2024/02/20 10:08:55;;;;;;;14.03;3.83;;;8.40;82.50;;;9.99;60.35;98915.06;5015700;28;20426;-50
2024/02/20 10:11:23;;;;;;;;;;;8.50;82.50;;;10.05;60.28;98924.34;5033716;28;20418;-50
2024/02/20 10:13:55;;;;;;;10.53;4.03;;;8.60;81.60;;;10.12;59.89;98920.22;5032652;28;19928;-51
2024/02/20 10:16:23;;;;;;;18.43;7.03;;;8.60;82.30;;;10.23;59.88;98921.97;5030264;28;20528;-51
2024/02/20 10:19:04;;;;;;;9.30;4.63;;;8.70;81.70;;;10.35;59.93;98918.34;5025205;28;20049;-50
2024/02/20 10:21:32;;;;;;;16.13;4.90;;;8.80;81.90;;;10.46;59.49;98922.75;5029723;28;20045;-52
2024/02/20 10:24:04;;;;;;;5.73;4.57;;;9.00;80.10;;;10.48;59.24;98922.63;5015265;28;20415;-50
2024/02/20 10:26:34;;;;;;;7.17;4.17;;;9.10;79.20;;;10.37;58.67;98913.72;5015167;28;20052;-49
2024/02/20 10:29:03;;;;;;;9.90;3.93;;;9.00;77.80;;;10.38;58.26;98925.22;5032729;28;20522;-50
2024/02/20 10:31:31;;;;;;;8.17;3.73;;;9.00;77.00;;;10.49;58.58;98916.31;5032309;28;20048;-50
2024/02/20 10:33:59;;;;;;;8.77;3.23;;;9.10;78.00;;;10.41;57.53;98920.47;5032548;28;20041;-50
2024/02/20 10:36:39;;;;;;;10.00;4.17;;;9.00;76.20;;;10.22;57.71;98928.28;5016062;28;20050;-53